sensor_id;sensor_type;location;lat;lon;timestamp;P1;durP1;ratioP1;P2;durP2;ratioP2
73507;SDS011;61749;55.002;73.386;2022-09-24T00:01:17;60.38;;;25.40;;
73507;SDS011;61749;55.002;73.386;2022-09-24T00:04:23;60.10;;;24.48;;
73507;SDS011;61749;55.002;73.386;2022-09-24T00:06:49;62.97;;;26.98;;
73507;SDS011;61749;55.002;73.386;2022-09-24T00:11:51;67.63;;;28.42;;
73507;SDS011;61749;55.002;73.386;2022-09-24T00:14:18;60.15;;;26.98;;
73507;SDS011;61749;55.002;73.386;2022-09-24T00:16:44;61.65;;;27.67;;
73507;SDS011;61749;55.002;73.386;2022-09-24T00:21:46;67.10;;;28.30;;
73507;SDS011;61749;55.002;73.386;2022-09-24T00:27:04;63.08;;;27.13;;
73507;SDS011;61749;55.002;73.386;2022-09-24T00:29:30;63.55;;;25.13;;
73507;SDS011;61749;55.002;73.386;2022-09-24T00:31:58;70.97;;;28.15;;
73507;SDS011;61749;55.002;73.386;2022-09-24T00:34:24;47.45;;;21.40;;
73507;SDS011;61749;55.002;73.386;2022-09-24T00:36:50;71.97;;;26.08;;
73507;SDS011;61749;55.002;73.386;2022-09-24T00:41:51;64.78;;;27.55;;
73507;SDS011;61749;55.002;73.386;2022-09-24T00:47:09;67.70;;;29.80;;
73507;SDS011;61749;55.002;73.386;2022-09-24T00:49:36;57.20;;;27.17;;
73507;SDS011;61749;55.002;73.386;2022-09-24T00:52:12;57.50;;;27.70;;
73507;SDS011;61749;55.002;73.386;2022-09-24T00:54:47;56.92;;;28.02;;
73507;SDS011;61749;55.002;73.386;2022-09-24T00:57:14;58.42;;;28.70;;
73507;SDS011;61749;55.002;73.386;2022-09-24T00:59:40;65.55;;;28.60;;
73507;SDS011;61749;55.002;73.386;2022-09-24T01:02:07;75.50;;;28.73;;
73507;SDS011;61749;55.002;73.386;2022-09-24T01:04:37;72.20;;;28.57;;
73507;SDS011;61749;55.002;73.386;2022-09-24T01:07:11;78.70;;;29.63;;
73507;SDS011;61749;55.002;73.386;2022-09-24T01:09:37;78.63;;;28.80;;
73507;SDS011;61749;55.002;73.386;2022-09-24T01:12:22;66.10;;;30.10;;
73507;SDS011;61749;55.002;73.386;2022-09-24T01:23:04;72.15;;;30.42;;
73507;SDS011;61749;55.002;73.386;2022-09-24T01:30:44;69.75;;;29.10;;
73507;SDS011;61749;55.002;73.386;2022-09-24T01:33:14;77.82;;;29.48;;
73507;SDS011;61749;55.002;73.386;2022-09-24T01:35:44;61.67;;;28.30;;
73507;SDS011;61749;55.002;73.386;2022-09-24T01:38:13;60.72;;;28.08;;
73507;SDS011;61749;55.002;73.386;2022-09-24T01:40:39;62.08;;;27.42;;
73507;SDS011;61749;55.002;73.386;2022-09-24T01:43:07;57.55;;;27.83;;
73507;SDS011;61749;55.002;73.386;2022-09-24T01:45:34;80.70;;;27.80;;
73507;SDS011;61749;55.002;73.386;2022-09-24T01:48:01;74.80;;;27.27;;
73507;SDS011;61749;55.002;73.386;2022-09-24T01:50:34;62.72;;;26.42;;
73507;SDS011;61749;55.002;73.386;2022-09-24T01:53:24;60.30;;;26.13;;
73507;SDS011;61749;55.002;73.386;2022-09-24T01:55:50;55.50;;;27.53;;
73507;SDS011;61749;55.002;73.386;2022-09-24T01:58:41;62.55;;;28.58;;
73507;SDS011;61749;55.002;73.386;2022-09-24T02:01:06;64.10;;;28.25;;
73507;SDS011;61749;55.002;73.386;2022-09-24T02:03:35;72.00;;;29.25;;
73507;SDS011;61749;55.002;73.386;2022-09-24T02:08:36;66.95;;;28.35;;
73507;SDS011;61749;55.002;73.386;2022-09-24T02:13:36;64.45;;;28.95;;
73507;SDS011;61749;55.002;73.386;2022-09-24T02:16:04;73.38;;;28.27;;
73507;SDS011;61749;55.002;73.386;2022-09-24T02:18:33;66.25;;;28.05;;
73507;SDS011;61749;55.002;73.386;2022-09-24T02:20:59;66.00;;;27.77;;
73507;SDS011;61749;55.002;73.386;2022-09-24T02:23:27;59.75;;;27.83;;
73507;SDS011;61749;55.002;73.386;2022-09-24T02:25:55;62.08;;;27.10;;
73507;SDS011;61749;55.002;73.386;2022-09-24T02:28:22;60.45;;;26.40;;
73507;SDS011;61749;55.002;73.386;2022-09-24T02:30:50;67.80;;;25.40;;
73507;SDS011;61749;55.002;73.386;2022-09-24T02:33:18;62.13;;;27.08;;
73507;SDS011;61749;55.002;73.386;2022-09-24T02:36:08;71.15;;;25.65;;
73507;SDS011;61749;55.002;73.386;2022-09-24T02:38:35;81.63;;;25.92;;
73507;SDS011;61749;55.002;73.386;2022-09-24T02:41:01;64.30;;;26.05;;
73507;SDS011;61749;55.002;73.386;2022-09-24T02:43:37;62.88;;;26.73;;
73507;SDS011;61749;55.002;73.386;2022-09-24T02:46:05;62.67;;;27.55;;
73507;SDS011;61749;55.002;73.386;2022-09-24T02:48:35;80.05;;;24.75;;
73507;SDS011;61749;55.002;73.386;2022-09-24T02:51:02;81.13;;;26.00;;
73507;SDS011;61749;55.002;73.386;2022-09-24T02:53:34;59.47;;;24.80;;
73507;SDS011;61749;55.002;73.386;2022-09-24T02:56:00;63.58;;;25.27;;
73507;SDS011;61749;55.002;73.386;2022-09-24T02:58:26;71.60;;;25.15;;
73507;SDS011;61749;55.002;73.386;2022-09-24T03:00:52;65.30;;;23.98;;
73507;SDS011;61749;55.002;73.386;2022-09-24T03:03:29;59.47;;;21.98;;
73507;SDS011;61749;55.002;73.386;2022-09-24T03:06:01;55.38;;;21.77;;
73507;SDS011;61749;55.002;73.386;2022-09-24T03:08:26;161.07;;;76.88;;
73507;SDS011;61749;55.002;73.386;2022-09-24T03:10:52;74.15;;;28.13;;
73507;SDS011;61749;55.002;73.386;2022-09-24T03:13:25;60.33;;;22.85;;
73507;SDS011;61749;55.002;73.386;2022-09-24T03:15:55;53.07;;;20.30;;
73507;SDS011;61749;55.002;73.386;2022-09-24T03:18:21;50.85;;;18.17;;
73507;SDS011;61749;55.002;73.386;2022-09-24T03:20:58;47.45;;;17.85;;
73507;SDS011;61749;55.002;73.386;2022-09-24T03:23:24;68.45;;;19.70;;
73507;SDS011;61749;55.002;73.386;2022-09-24T03:25:50;44.58;;;17.10;;
73507;SDS011;61749;55.002;73.386;2022-09-24T03:28:16;50.45;;;16.83;;
73507;SDS011;61749;55.002;73.386;2022-09-24T03:30:52;44.85;;;14.68;;
73507;SDS011;61749;55.002;73.386;2022-09-24T03:33:25;39.65;;;15.05;;
73507;SDS011;61749;55.002;73.386;2022-09-24T03:36:10;43.47;;;13.57;;
73507;SDS011;61749;55.002;73.386;2022-09-24T03:38:37;48.00;;;14.00;;
73507;SDS011;61749;55.002;73.386;2022-09-24T03:41:04;47.38;;;14.43;;
73507;SDS011;61749;55.002;73.386;2022-09-24T03:43:31;46.22;;;13.82;;
73507;SDS011;61749;55.002;73.386;2022-09-24T03:45:57;35.63;;;12.60;;
73507;SDS011;61749;55.002;73.386;2022-09-24T03:48:26;36.55;;;12.73;;
73507;SDS011;61749;55.002;73.386;2022-09-24T03:50:54;31.20;;;11.38;;
73507;SDS011;61749;55.002;73.386;2022-09-24T03:53:27;37.10;;;10.38;;
73507;SDS011;61749;55.002;73.386;2022-09-24T03:56:16;49.60;;;11.87;;
73507;SDS011;61749;55.002;73.386;2022-09-24T03:59:27;53.29;;;12.11;;
73507;SDS011;61749;55.002;73.386;2022-09-24T04:02:01;37.13;;;10.48;;
73507;SDS011;61749;55.002;73.386;2022-09-24T04:04:38;35.10;;;9.65;;
73507;SDS011;61749;55.002;73.386;2022-09-24T04:07:04;40.47;;;9.23;;
73507;SDS011;61749;55.002;73.386;2022-09-24T04:09:30;30.38;;;9.48;;
73507;SDS011;61749;55.002;73.386;2022-09-24T04:12:07;39.38;;;8.68;;
73507;SDS011;61749;55.002;73.386;2022-09-24T04:14:33;26.65;;;7.40;;
73507;SDS011;61749;55.002;73.386;2022-09-24T04:17:03;228.60;;;181.27;;
73507;SDS011;61749;55.002;73.386;2022-09-24T04:19:30;33.67;;;8.27;;
73507;SDS011;61749;55.002;73.386;2022-09-24T04:21:56;26.33;;;7.60;;
73507;SDS011;61749;55.002;73.386;2022-09-24T04:24:28;32.83;;;7.63;;
73507;SDS011;61749;55.002;73.386;2022-09-24T04:26:54;36.88;;;8.55;;
73507;SDS011;61749;55.002;73.386;2022-09-24T04:31:51;32.65;;;8.73;;
73507;SDS011;61749;55.002;73.386;2022-09-24T04:34:27;16.15;;;5.65;;
73507;SDS011;61749;55.002;73.386;2022-09-24T04:36:57;34.25;;;9.68;;
73507;SDS011;61749;55.002;73.386;2022-09-24T04:39:31;38.13;;;8.70;;
73507;SDS011;61749;55.002;73.386;2022-09-24T04:41:57;52.58;;;9.50;;
73507;SDS011;61749;55.002;73.386;2022-09-24T04:44:33;30.27;;;8.27;;
73507;SDS011;61749;55.002;73.386;2022-09-24T04:47:06;34.97;;;8.07;;
73507;SDS011;61749;55.002;73.386;2022-09-24T04:49:33;23.00;;;8.00;;
73507;SDS011;61749;55.002;73.386;2022-09-24T04:51:59;45.33;;;8.38;;
73507;SDS011;61749;55.002;73.386;2022-09-24T04:54:28;35.25;;;7.03;;
73507;SDS011;61749;55.002;73.386;2022-09-24T04:56:59;49.28;;;8.52;;
73507;SDS011;61749;55.002;73.386;2022-09-24T04:59:26;37.35;;;5.65;;
73507;SDS011;61749;55.002;73.386;2022-09-24T05:01:53;37.03;;;8.32;;
73507;SDS011;61749;55.002;73.386;2022-09-24T05:04:35;54.33;;;19.73;;
73507;SDS011;61749;55.002;73.386;2022-09-24T05:07:01;47.97;;;8.80;;
73507;SDS011;61749;55.002;73.386;2022-09-24T05:09:28;38.00;;;8.57;;
73507;SDS011;61749;55.002;73.386;2022-09-24T05:11:56;28.08;;;7.22;;
73507;SDS011;61749;55.002;73.386;2022-09-24T05:14:24;33.97;;;6.35;;
73507;SDS011;61749;55.002;73.386;2022-09-24T05:17:03;29.65;;;6.78;;
73507;SDS011;61749;55.002;73.386;2022-09-24T05:19:29;26.30;;;7.20;;
73507;SDS011;61749;55.002;73.386;2022-09-24T05:21:55;45.10;;;6.90;;
73507;SDS011;61749;55.002;73.386;2022-09-24T05:24:31;49.83;;;6.40;;
73507;SDS011;61749;55.002;73.386;2022-09-24T05:27:01;473.23;;;423.10;;
73507;SDS011;61749;55.002;73.386;2022-09-24T05:29:37;39.20;;;9.40;;
73507;SDS011;61749;55.002;73.386;2022-09-24T05:32:07;33.83;;;6.45;;
73507;SDS011;61749;55.002;73.386;2022-09-24T05:34:39;29.48;;;6.47;;
73507;SDS011;61749;55.002;73.386;2022-09-24T05:37:15;39.00;;;6.80;;
73507;SDS011;61749;55.002;73.386;2022-09-24T05:39:47;48.35;;;6.70;;
73507;SDS011;61749;55.002;73.386;2022-09-24T05:42:19;37.08;;;6.28;;
73507;SDS011;61749;55.002;73.386;2022-09-24T05:44:45;46.95;;;6.40;;
73507;SDS011;61749;55.002;73.386;2022-09-24T05:47:13;34.58;;;6.68;;
73507;SDS011;61749;55.002;73.386;2022-09-24T05:52:05;40.42;;;6.68;;
73507;SDS011;61749;55.002;73.386;2022-09-24T05:54:41;43.42;;;6.53;;
73507;SDS011;61749;55.002;73.386;2022-09-24T05:57:07;28.58;;;5.68;;
73507;SDS011;61749;55.002;73.386;2022-09-24T05:59:46;30.95;;;6.22;;
73507;SDS011;61749;55.002;73.386;2022-09-24T06:02:29;25.95;;;5.80;;
73507;SDS011;61749;55.002;73.386;2022-09-24T06:04:56;38.08;;;6.13;;
73507;SDS011;61749;55.002;73.386;2022-09-24T06:07:23;23.85;;;5.82;;
73507;SDS011;61749;55.002;73.386;2022-09-24T06:12:18;37.25;;;5.53;;
73507;SDS011;61749;55.002;73.386;2022-09-24T06:14:51;43.30;;;6.47;;
73507;SDS011;61749;55.002;73.386;2022-09-24T06:17:21;53.58;;;31.70;;
73507;SDS011;61749;55.002;73.386;2022-09-24T06:19:48;34.17;;;6.53;;
73507;SDS011;61749;55.002;73.386;2022-09-24T06:22:14;35.35;;;6.78;;
73507;SDS011;61749;55.002;73.386;2022-09-24T06:24:40;35.10;;;7.20;;
73507;SDS011;61749;55.002;73.386;2022-09-24T06:27:06;28.45;;;6.95;;
73507;SDS011;61749;55.002;73.386;2022-09-24T06:29:35;31.08;;;6.75;;
73507;SDS011;61749;55.002;73.386;2022-09-24T06:32:01;34.97;;;6.10;;
73507;SDS011;61749;55.002;73.386;2022-09-24T06:34:28;27.33;;;5.72;;
73507;SDS011;61749;55.002;73.386;2022-09-24T06:36:57;27.60;;;6.07;;
73507;SDS011;61749;55.002;73.386;2022-09-24T06:41:56;34.80;;;7.18;;
73507;SDS011;61749;55.002;73.386;2022-09-24T06:44:23;27.77;;;6.53;;
73507;SDS011;61749;55.002;73.386;2022-09-24T06:46:49;33.55;;;6.15;;
73507;SDS011;61749;55.002;73.386;2022-09-24T06:49:15;32.53;;;5.60;;
73507;SDS011;61749;55.002;73.386;2022-09-24T07:03:33;27.40;;;5.65;;
73507;SDS011;61749;55.002;73.386;2022-09-24T07:06:06;38.03;;;5.47;;
73507;SDS011;61749;55.002;73.386;2022-09-24T07:08:37;36.72;;;5.97;;
73507;SDS011;61749;55.002;73.386;2022-09-24T07:11:07;44.28;;;6.97;;
73507;SDS011;61749;55.002;73.386;2022-09-24T07:13:53;36.13;;;5.71;;
73507;SDS011;61749;55.002;73.386;2022-09-24T07:16:18;33.42;;;9.43;;
73507;SDS011;61749;55.002;73.386;2022-09-24T07:19:20;36.05;;;6.38;;
73507;SDS011;61749;55.002;73.386;2022-09-24T07:21:46;33.17;;;5.53;;
73507;SDS011;61749;55.002;73.386;2022-09-24T07:26:45;21.85;;;5.47;;
73507;SDS011;61749;55.002;73.386;2022-09-24T07:31:45;27.25;;;6.10;;
73507;SDS011;61749;55.002;73.386;2022-09-24T07:36:45;34.40;;;9.68;;
73507;SDS011;61749;55.002;73.386;2022-09-24T07:41:45;35.65;;;6.07;;
73507;SDS011;61749;55.002;73.386;2022-09-24T07:44:11;38.75;;;5.50;;
73507;SDS011;61749;55.002;73.386;2022-09-24T07:46:38;38.17;;;5.93;;
73507;SDS011;61749;55.002;73.386;2022-09-24T07:51:49;28.90;;;6.28;;
73507;SDS011;61749;55.002;73.386;2022-09-24T07:54:24;17.50;;;3.70;;
73507;SDS011;61749;55.002;73.386;2022-09-24T07:56:50;26.52;;;5.55;;
73507;SDS011;61749;55.002;73.386;2022-09-24T07:59:27;30.08;;;5.28;;
73507;SDS011;61749;55.002;73.386;2022-09-24T08:02:02;33.10;;;6.07;;
73507;SDS011;61749;55.002;73.386;2022-09-24T08:04:29;26.42;;;5.85;;
73507;SDS011;61749;55.002;73.386;2022-09-24T08:06:55;26.77;;;5.40;;
73507;SDS011;61749;55.002;73.386;2022-09-24T08:09:21;9.00;;;2.70;;
73507;SDS011;61749;55.002;73.386;2022-09-24T08:11:52;24.83;;;5.82;;
73507;SDS011;61749;55.002;73.386;2022-09-24T08:14:18;19.40;;;4.97;;
73507;SDS011;61749;55.002;73.386;2022-09-24T08:16:49;31.77;;;6.00;;
73507;SDS011;61749;55.002;73.386;2022-09-24T08:21:52;30.17;;;5.50;;
73507;SDS011;61749;55.002;73.386;2022-09-24T08:26:56;34.38;;;5.45;;
73507;SDS011;61749;55.002;73.386;2022-09-24T08:29:33;25.67;;;5.20;;
73507;SDS011;61749;55.002;73.386;2022-09-24T08:32:15;26.67;;;5.47;;
73507;SDS011;61749;55.002;73.386;2022-09-24T08:34:48;38.55;;;6.05;;
73507;SDS011;61749;55.002;73.386;2022-09-24T08:37:14;28.50;;;5.55;;
73507;SDS011;61749;55.002;73.386;2022-09-24T08:39:45;29.67;;;5.28;;
73507;SDS011;61749;55.002;73.386;2022-09-24T08:42:27;35.00;;;5.60;;
73507;SDS011;61749;55.002;73.386;2022-09-24T08:45:00;21.90;;;4.90;;
73507;SDS011;61749;55.002;73.386;2022-09-24T08:47:52;21.60;;;4.15;;
73507;SDS011;61749;55.002;73.386;2022-09-24T08:50:24;21.23;;;4.50;;
73507;SDS011;61749;55.002;73.386;2022-09-24T08:55:54;30.17;;;4.97;;
73507;SDS011;61749;55.002;73.386;2022-09-24T09:00:56;17.25;;;4.80;;
73507;SDS011;61749;55.002;73.386;2022-09-24T09:06:03;31.40;;;8.30;;
73507;SDS011;61749;55.002;73.386;2022-09-24T09:11:02;22.20;;;5.40;;
73507;SDS011;61749;55.002;73.386;2022-09-24T09:13:31;23.02;;;6.07;;
73507;SDS011;61749;55.002;73.386;2022-09-24T09:16:00;27.08;;;5.47;;
73507;SDS011;61749;55.002;73.386;2022-09-24T09:18:30;30.27;;;6.60;;
73507;SDS011;61749;55.002;73.386;2022-09-24T09:21:10;22.13;;;5.22;;
73507;SDS011;61749;55.002;73.386;2022-09-24T09:24:21;40.20;;;5.45;;
73507;SDS011;61749;55.002;73.386;2022-09-24T09:26:50;31.40;;;7.22;;
73507;SDS011;61749;55.002;73.386;2022-09-24T09:44:25;21.33;;;5.35;;
73507;SDS011;61749;55.002;73.386;2022-09-24T09:46:52;24.63;;;5.40;;
73507;SDS011;61749;55.002;73.386;2022-09-24T09:51:45;28.90;;;5.78;;
73507;SDS011;61749;55.002;73.386;2022-09-24T09:56:46;36.60;;;5.95;;
73507;SDS011;61749;55.002;73.386;2022-09-24T10:01:49;26.02;;;5.20;;
73507;SDS011;61749;55.002;73.386;2022-09-24T10:07:09;36.67;;;5.43;;
73507;SDS011;61749;55.002;73.386;2022-09-24T10:09:38;24.20;;;4.75;;
73507;SDS011;61749;55.002;73.386;2022-09-24T10:12:18;24.95;;;4.70;;
73507;SDS011;61749;55.002;73.386;2022-09-24T10:15:34;34.03;;;5.60;;
73507;SDS011;61749;55.002;73.386;2022-09-24T10:17:44;42.65;;;5.53;;
73507;SDS011;61749;55.002;73.386;2022-09-24T10:20:14;41.70;;;5.60;;
73507;SDS011;61749;55.002;73.386;2022-09-24T10:22:49;97.53;;;61.83;;
73507;SDS011;61749;55.002;73.386;2022-09-24T10:25:19;38.95;;;7.65;;
73507;SDS011;61749;55.002;73.386;2022-09-24T10:27:47;31.55;;;5.50;;
73507;SDS011;61749;55.002;73.386;2022-09-24T10:30:14;23.88;;;4.63;;
73507;SDS011;61749;55.002;73.386;2022-09-24T10:33:02;34.15;;;5.70;;
73507;SDS011;61749;55.002;73.386;2022-09-24T10:35:32;24.70;;;5.40;;
73507;SDS011;61749;55.002;73.386;2022-09-24T10:38:00;33.40;;;5.75;;
73507;SDS011;61749;55.002;73.386;2022-09-24T10:40:36;41.78;;;5.90;;
73507;SDS011;61749;55.002;73.386;2022-09-24T10:43:04;34.28;;;5.88;;
73507;SDS011;61749;55.002;73.386;2022-09-24T10:45:41;31.85;;;5.47;;
73507;SDS011;61749;55.002;73.386;2022-09-24T10:53:38;369.15;;;305.42;;
73507;SDS011;61749;55.002;73.386;2022-09-24T11:03:50;29.60;;;7.70;;
73507;SDS011;61749;55.002;73.386;2022-09-24T11:09:22;40.38;;;5.57;;
73507;SDS011;61749;55.002;73.386;2022-09-24T11:17:22;41.20;;;6.68;;
73507;SDS011;61749;55.002;73.386;2022-09-24T11:25:20;32.83;;;5.75;;
73507;SDS011;61749;55.002;73.386;2022-09-24T11:27:55;35.58;;;5.93;;
73507;SDS011;61749;55.002;73.386;2022-09-24T11:30:31;26.42;;;5.60;;
73507;SDS011;61749;55.002;73.386;2022-09-24T11:48:41;40.25;;;10.55;;
73507;SDS011;61749;55.002;73.386;2022-09-24T11:54:29;48.58;;;12.70;;
73507;SDS011;61749;55.002;73.386;2022-09-24T11:57:02;55.05;;;13.00;;
73507;SDS011;61749;55.002;73.386;2022-09-24T11:59:51;60.28;;;23.85;;
73507;SDS011;61749;55.002;73.386;2022-09-24T12:02:25;56.42;;;24.50;;
73507;SDS011;61749;55.002;73.386;2022-09-24T12:05:04;62.00;;;23.15;;
73507;SDS011;61749;55.002;73.386;2022-09-24T12:07:33;61.03;;;24.67;;
73507;SDS011;61749;55.002;73.386;2022-09-24T12:15:42;61.03;;;14.82;;
73507;SDS011;61749;55.002;73.386;2022-09-24T12:18:11;61.95;;;23.60;;
73507;SDS011;61749;55.002;73.386;2022-09-24T12:20:56;194.68;;;89.38;;
73507;SDS011;61749;55.002;73.386;2022-09-24T12:23:32;128.48;;;55.25;;
73507;SDS011;61749;55.002;73.386;2022-09-24T12:26:01;138.45;;;64.53;;
73507;SDS011;61749;55.002;73.386;2022-09-24T12:28:32;131.50;;;57.05;;
73507;SDS011;61749;55.002;73.386;2022-09-24T12:31:31;267.13;;;143.17;;
73507;SDS011;61749;55.002;73.386;2022-09-24T12:37:04;91.82;;;30.83;;
73507;SDS011;61749;55.002;73.386;2022-09-24T12:39:35;68.78;;;26.83;;
73507;SDS011;61749;55.002;73.386;2022-09-24T12:42:06;120.18;;;46.83;;
73507;SDS011;61749;55.002;73.386;2022-09-24T12:45:08;95.43;;;41.88;;
73507;SDS011;61749;55.002;73.386;2022-09-24T12:47:27;138.25;;;51.15;;
73507;SDS011;61749;55.002;73.386;2022-09-24T12:49:59;112.18;;;45.33;;
73507;SDS011;61749;55.002;73.386;2022-09-24T12:54:55;69.50;;;25.73;;
73507;SDS011;61749;55.002;73.386;2022-09-24T12:57:34;64.45;;;17.42;;
73507;SDS011;61749;55.002;73.386;2022-09-24T13:00:02;67.80;;;21.65;;
73507;SDS011;61749;55.002;73.386;2022-09-24T13:02:47;54.55;;;20.17;;
73507;SDS011;61749;55.002;73.386;2022-09-24T13:07:40;74.05;;;25.92;;
73507;SDS011;61749;55.002;73.386;2022-09-24T13:12:47;157.25;;;31.77;;
73507;SDS011;61749;55.002;73.386;2022-09-24T13:15:33;83.47;;;21.60;;
73507;SDS011;61749;55.002;73.386;2022-09-24T13:18:02;168.05;;;87.57;;
73507;SDS011;61749;55.002;73.386;2022-09-24T13:20:29;103.68;;;42.15;;
73507;SDS011;61749;55.002;73.386;2022-09-24T13:23:28;144.50;;;61.08;;
73507;SDS011;61749;55.002;73.386;2022-09-24T13:26:10;202.55;;;72.05;;
73507;SDS011;61749;55.002;73.386;2022-09-24T13:36:47;195.98;;;53.22;;
73507;SDS011;61749;55.002;73.386;2022-09-24T13:44:32;266.30;;;115.30;;
73507;SDS011;61749;55.002;73.386;2022-09-24T13:47:00;260.50;;;124.68;;
73507;SDS011;61749;55.002;73.386;2022-09-24T13:51:56;304.52;;;124.57;;
73507;SDS011;61749;55.002;73.386;2022-09-24T13:54:30;219.35;;;90.00;;
73507;SDS011;61749;55.002;73.386;2022-09-24T13:57:10;307.48;;;133.23;;
73507;SDS011;61749;55.002;73.386;2022-09-24T13:59:47;291.52;;;142.00;;
73507;SDS011;61749;55.002;73.386;2022-09-24T14:02:22;280.88;;;136.90;;
73507;SDS011;61749;55.002;73.386;2022-09-24T14:04:54;252.00;;;121.13;;
73507;SDS011;61749;55.002;73.386;2022-09-24T14:07:20;238.90;;;118.47;;
73507;SDS011;61749;55.002;73.386;2022-09-24T14:09:47;331.23;;;201.18;;
73507;SDS011;61749;55.002;73.386;2022-09-24T14:12:14;245.95;;;119.40;;
73507;SDS011;61749;55.002;73.386;2022-09-24T14:14:44;224.60;;;105.90;;
73507;SDS011;61749;55.002;73.386;2022-09-24T14:17:12;217.30;;;100.82;;
73507;SDS011;61749;55.002;73.386;2022-09-24T14:19:43;225.95;;;103.40;;
73507;SDS011;61749;55.002;73.386;2022-09-24T14:24:55;211.80;;;97.75;;
73507;SDS011;61749;55.002;73.386;2022-09-24T14:27:35;224.05;;;104.10;;
73507;SDS011;61749;55.002;73.386;2022-09-24T14:30:05;205.23;;;100.57;;
73507;SDS011;61749;55.002;73.386;2022-09-24T14:34:58;179.93;;;84.55;;
73507;SDS011;61749;55.002;73.386;2022-09-24T14:39:55;163.93;;;84.05;;
73507;SDS011;61749;55.002;73.386;2022-09-24T14:42:27;184.80;;;78.60;;
73507;SDS011;61749;55.002;73.386;2022-09-24T14:44:54;203.02;;;103.05;;
73507;SDS011;61749;55.002;73.386;2022-09-24T14:47:31;274.00;;;138.52;;
73507;SDS011;61749;55.002;73.386;2022-09-24T14:49:57;342.75;;;166.55;;
73507;SDS011;61749;55.002;73.386;2022-09-24T14:52:34;334.63;;;167.05;;
73507;SDS011;61749;55.002;73.386;2022-09-24T14:55:16;292.05;;;132.93;;
73507;SDS011;61749;55.002;73.386;2022-09-24T14:57:44;295.88;;;151.13;;
73507;SDS011;61749;55.002;73.386;2022-09-24T15:02:58;308.40;;;159.57;;
73507;SDS011;61749;55.002;73.386;2022-09-24T15:05:36;305.70;;;160.70;;
73507;SDS011;61749;55.002;73.386;2022-09-24T15:08:11;321.73;;;163.18;;
73507;SDS011;61749;55.002;73.386;2022-09-24T15:10:53;303.15;;;155.05;;
73507;SDS011;61749;55.002;73.386;2022-09-24T15:13:21;287.65;;;147.27;;
73507;SDS011;61749;55.002;73.386;2022-09-24T15:15:47;267.20;;;129.23;;
73507;SDS011;61749;55.002;73.386;2022-09-24T15:18:23;239.85;;;122.50;;
73507;SDS011;61749;55.002;73.386;2022-09-24T15:20:55;222.23;;;115.30;;
73507;SDS011;61749;55.002;73.386;2022-09-24T15:23:24;222.17;;;116.57;;
73507;SDS011;61749;55.002;73.386;2022-09-24T15:25:55;222.98;;;109.78;;
73507;SDS011;61749;55.002;73.386;2022-09-24T15:28:27;223.18;;;103.10;;
73507;SDS011;61749;55.002;73.386;2022-09-24T15:30:55;183.25;;;89.55;;
73507;SDS011;61749;55.002;73.386;2022-09-24T15:33:21;177.88;;;89.90;;
73507;SDS011;61749;55.002;73.386;2022-09-24T15:35:47;218.60;;;115.10;;
73507;SDS011;61749;55.002;73.386;2022-09-24T15:38:17;183.65;;;79.90;;
73507;SDS011;61749;55.002;73.386;2022-09-24T15:40:53;169.52;;;78.20;;
73507;SDS011;61749;55.002;73.386;2022-09-24T15:43:23;185.93;;;85.22;;
73507;SDS011;61749;55.002;73.386;2022-09-24T15:45:49;238.02;;;102.75;;
73507;SDS011;61749;55.002;73.386;2022-09-24T15:48:15;186.05;;;80.30;;
73507;SDS011;61749;55.002;73.386;2022-09-24T15:50:42;192.07;;;91.07;;
73507;SDS011;61749;55.002;73.386;2022-09-24T15:53:19;198.95;;;84.85;;
73507;SDS011;61749;55.002;73.386;2022-09-24T15:55:46;190.52;;;88.85;;
73507;SDS011;61749;55.002;73.386;2022-09-24T15:58:14;205.80;;;102.65;;
73507;SDS011;61749;55.002;73.386;2022-09-24T16:00:41;213.90;;;107.40;;
73507;SDS011;61749;55.002;73.386;2022-09-24T16:03:21;221.48;;;100.88;;
73507;SDS011;61749;55.002;73.386;2022-09-24T16:05:47;238.70;;;114.88;;
73507;SDS011;61749;55.002;73.386;2022-09-24T16:08:14;224.60;;;98.35;;
73507;SDS011;61749;55.002;73.386;2022-09-24T16:10:50;282.00;;;113.38;;
73507;SDS011;61749;55.002;73.386;2022-09-24T16:13:16;226.00;;;106.78;;
73507;SDS011;61749;55.002;73.386;2022-09-24T16:15:42;134.50;;;55.40;;
73507;SDS011;61749;55.002;73.386;2022-09-24T16:18:09;150.77;;;58.95;;
73507;SDS011;61749;55.002;73.386;2022-09-24T16:20:37;163.88;;;76.28;;
73507;SDS011;61749;55.002;73.386;2022-09-24T16:23:03;162.90;;;64.53;;
73507;SDS011;61749;55.002;73.386;2022-09-24T16:25:29;137.95;;;52.17;;
73507;SDS011;61749;55.002;73.386;2022-09-24T16:27:56;155.48;;;58.88;;
73507;SDS011;61749;55.002;73.386;2022-09-24T16:30:22;150.95;;;56.17;;
73507;SDS011;61749;55.002;73.386;2022-09-24T16:32:48;212.57;;;87.18;;
73507;SDS011;61749;55.002;73.386;2022-09-24T16:35:15;201.57;;;90.10;;
73507;SDS011;61749;55.002;73.386;2022-09-24T16:37:41;136.68;;;52.63;;
73507;SDS011;61749;55.002;73.386;2022-09-24T16:40:07;207.75;;;77.75;;
73507;SDS011;61749;55.002;73.386;2022-09-24T16:42:33;176.70;;;68.53;;
73507;SDS011;61749;55.002;73.386;2022-09-24T16:44:59;168.38;;;65.75;;
73507;SDS011;61749;55.002;73.386;2022-09-24T16:47:25;152.98;;;56.45;;
73507;SDS011;61749;55.002;73.386;2022-09-24T16:49:50;143.38;;;47.95;;
73507;SDS011;61749;55.002;73.386;2022-09-24T16:52:16;140.38;;;47.78;;
73507;SDS011;61749;55.002;73.386;2022-09-24T16:54:42;156.95;;;52.90;;
73507;SDS011;61749;55.002;73.386;2022-09-24T16:57:08;160.27;;;56.53;;
73507;SDS011;61749;55.002;73.386;2022-09-24T16:59:34;120.85;;;46.33;;
73507;SDS011;61749;55.002;73.386;2022-09-24T17:02:00;134.25;;;42.40;;
73507;SDS011;61749;55.002;73.386;2022-09-24T17:04:26;128.70;;;38.05;;
73507;SDS011;61749;55.002;73.386;2022-09-24T17:07:02;134.05;;;42.95;;
73507;SDS011;61749;55.002;73.386;2022-09-24T17:09:27;135.88;;;46.42;;
73507;SDS011;61749;55.002;73.386;2022-09-24T17:12:12;116.90;;;40.28;;
73507;SDS011;61749;55.002;73.386;2022-09-24T17:14:37;114.32;;;32.42;;
73507;SDS011;61749;55.002;73.386;2022-09-24T17:17:04;100.30;;;32.13;;
73507;SDS011;61749;55.002;73.386;2022-09-24T17:19:30;99.38;;;29.58;;
73507;SDS011;61749;55.002;73.386;2022-09-24T17:21:56;127.75;;;33.38;;
73507;SDS011;61749;55.002;73.386;2022-09-24T17:24:23;100.80;;;18.50;;
73507;SDS011;61749;55.002;73.386;2022-09-24T17:26:49;160.45;;;48.85;;
73507;SDS011;61749;55.002;73.386;2022-09-24T17:31:47;96.03;;;27.50;;
73507;SDS011;61749;55.002;73.386;2022-09-24T17:37:03;78.53;;;22.38;;
73507;SDS011;61749;55.002;73.386;2022-09-24T17:39:29;47.72;;;18.23;;
73507;SDS011;61749;55.002;73.386;2022-09-24T17:41:55;101.38;;;31.85;;
73507;SDS011;61749;55.002;73.386;2022-09-24T17:44:21;100.55;;;28.30;;
73507;SDS011;61749;55.002;73.386;2022-09-24T17:46:47;64.05;;;19.90;;
73507;SDS011;61749;55.002;73.386;2022-09-24T17:52:03;62.88;;;19.83;;
73507;SDS011;61749;55.002;73.386;2022-09-24T17:57:05;76.22;;;19.23;;